Time;durP1;ratioP1;P1;durP2;ratioP2;P2;SDS_P1;SDS_P2;PMS_P1;PMS_P2;Temp;Humidity;BMP_temperature;BMP_pressure;BME280_temperature;BME280_humidity;BME280_pressure;Samples;Min_cycle;Max_cycle;Signal;HPM_P1;HPM_P2
2024/01/15 00:01:26;;;;;;;18.55;7.72;;;5.90;99.90;;;;;;5016090;28;20025;-83
2024/01/15 00:03:52;;;;;;;16.50;6.47;;;5.90;99.90;;;;;;5016312;28;20032;-83
2024/01/15 00:06:17;;;;;;;21.75;7.22;;;5.90;99.90;;;;;;5028443;28;20021;-83
2024/01/15 00:08:43;;;;;;;17.15;6.65;;;5.90;99.90;;;;;;5015373;28;20026;-84
2024/01/15 00:11:08;;;;;;;17.58;7.22;;;5.90;99.90;;;;;;5014626;28;20021;-83
2024/01/15 00:13:34;;;;;;;19.08;7.28;;;5.90;99.90;;;;;;5030017;28;20061;-84
2024/01/15 00:16:00;;;;;;;19.98;7.30;;;5.90;99.90;;;;;;5012913;28;20491;-83
2024/01/15 00:18:25;;;;;;;18.27;6.70;;;5.90;99.90;;;;;;5027381;28;20027;-83
2024/01/15 00:20:51;;;;;;;16.13;6.20;;;5.90;99.90;;;;;;5015764;28;21279;-84
2024/01/15 00:23:16;;;;;;;13.48;6.05;;;5.90;99.90;;;;;;5032892;28;20484;-83
2024/01/15 00:25:42;;;;;;;18.23;6.47;;;5.90;99.90;;;;;;5015589;28;20466;-83
2024/01/15 00:28:07;;;;;;;15.77;6.05;;;5.90;99.90;;;;;;5014545;28;20044;-83
2024/01/15 00:30:33;;;;;;;20.48;6.22;;;5.90;99.90;;;;;;5026574;28;20041;-83
2024/01/15 00:32:58;;;;;;;16.15;6.13;;;5.90;99.90;;;;;;5029615;28;20014;-82
2024/01/15 00:35:24;;;;;;;18.90;6.57;;;5.90;99.90;;;;;;5015209;28;20041;-83
2024/01/15 00:37:49;;;;;;;16.45;6.78;;;5.90;99.90;;;;;;5018270;28;20028;-83
2024/01/15 00:40:15;;;;;;;17.40;6.70;;;5.90;99.90;;;;;;5011218;28;20025;-84
2024/01/15 00:42:40;;;;;;;22.65;6.63;;;5.90;99.90;;;;;;5031454;28;20030;-85
2024/01/15 00:45:07;;;;;;;18.95;6.38;;;5.90;99.90;;;;;;5008826;28;20084;-83
2024/01/15 00:47:34;;;;;;;19.25;6.75;;;5.90;99.90;;;;;;5003969;28;20050;-84
2024/01/15 00:50:00;;;;;;;14.45;5.78;;;5.90;99.90;;;;;;5029836;28;20014;-83
2024/01/15 00:52:25;;;;;;;21.83;6.72;;;5.90;99.90;;;;;;5028776;28;20022;-84
2024/01/15 00:54:51;;;;;;;16.48;5.93;;;5.90;99.90;;;;;;5006280;28;20484;-83
2024/01/15 00:57:18;;;;;;;17.45;6.68;;;6.00;99.90;;;;;;5026841;28;20021;-83
2024/01/15 00:59:44;;;;;;;15.38;6.07;;;6.00;99.90;;;;;;5014933;28;20029;-83
2024/01/15 01:02:10;;;;;;;12.60;5.50;;;6.00;99.90;;;;;;5013998;28;20055;-83
2024/01/15 01:04:36;;;;;;;12.93;5.53;;;6.00;99.90;;;;;;5013119;28;20469;-83
2024/01/15 01:07:01;;;;;;;16.52;5.63;;;6.00;99.90;;;;;;5027796;28;20024;-85
2024/01/15 01:09:29;;;;;;;14.20;4.95;;;6.00;99.90;;;;;;5012907;28;20029;-83
2024/01/15 01:11:55;;;;;;;12.93;5.57;;;6.00;99.90;;;;;;5031651;28;20029;-84
2024/01/15 01:14:21;;;;;;;21.35;5.57;;;6.00;99.90;;;;;;5030987;28;20029;-85
2024/01/15 01:16:47;;;;;;;15.73;4.80;;;6.00;99.90;;;;;;5011818;28;20036;-84
2024/01/15 01:19:12;;;;;;;14.20;5.25;;;6.00;99.90;;;;;;5009633;28;20042;-83
2024/01/15 01:21:38;;;;;;;10.48;4.30;;;6.00;99.90;;;;;;5011349;28;20061;-82
2024/01/15 01:24:04;;;;;;;10.13;4.38;;;6.00;99.90;;;;;;5029575;28;20025;-84
2024/01/15 01:26:30;;;;;;;14.57;4.30;;;5.90;99.90;;;;;;5009777;28;20030;-83
2024/01/15 01:28:56;;;;;;;10.65;4.55;;;5.90;99.90;;;;;;5028966;28;20515;-84
2024/01/15 01:31:21;;;;;;;11.85;3.75;;;5.90;99.90;;;;;;5012613;28;20022;-83
2024/01/15 01:33:47;;;;;;;9.38;3.58;;;5.90;99.90;;;;;;5024263;28;20088;-83
2024/01/15 01:36:12;;;;;;;12.18;4.28;;;5.90;99.90;;;;;;5012990;28;20033;-83
2024/01/15 01:38:38;;;;;;;11.38;4.03;;;5.90;99.90;;;;;;5030251;28;20034;-84
2024/01/15 01:41:03;;;;;;;9.02;3.67;;;5.90;99.90;;;;;;5028960;28;20104;-83
2024/01/15 01:43:29;;;;;;;9.65;4.25;;;5.90;99.90;;;;;;5012538;28;20698;-84
2024/01/15 01:45:58;;;;;;;10.05;4.00;;;5.90;99.90;;;;;;5023954;28;20025;-83
2024/01/15 01:48:25;;;;;;;9.13;3.80;;;5.90;99.90;;;;;;5027652;28;20022;-82
2024/01/15 01:50:56;;;;;;;9.20;3.92;;;5.90;99.90;;;;;;5013248;28;20557;-82
2024/01/15 01:53:23;;;;;;;7.25;4.00;;;5.90;99.90;;;;;;5027566;28;20067;-83
2024/01/15 01:55:49;;;;;;;9.23;4.28;;;5.90;99.90;;;;;;5011023;28;20499;-83
2024/01/15 01:58:15;;;;;;;12.68;4.57;;;5.90;99.90;;;;;;5005399;28;20034;-83
2024/01/15 02:00:41;;;;;;;11.18;4.47;;;5.90;99.90;;;;;;5009994;28;20056;-82
2024/01/15 02:03:07;;;;;;;11.27;4.20;;;5.90;99.90;;;;;;5025658;28;20025;-84
2024/01/15 02:05:35;;;;;;;10.68;4.28;;;5.90;99.90;;;;;;5010460;28;20033;-82
2024/01/15 02:08:00;;;;;;;16.15;4.18;;;5.80;99.90;;;;;;5028778;28;20025;-84
2024/01/15 02:10:26;;;;;;;12.15;5.28;;;5.80;99.90;;;;;;5010582;28;20081;-83
2024/01/15 02:12:51;;;;;;;13.95;3.92;;;5.80;99.90;;;;;;5010470;28;20029;-83
2024/01/15 02:15:17;;;;;;;13.02;4.82;;;5.80;99.90;;;;;;5010359;28;20037;-82
2024/01/15 02:18:03;;;;;;;13.45;4.85;;;5.80;99.90;;;;;;5009403;28;20083;-83
2024/01/15 02:20:29;;;;;;;12.55;4.85;;;5.80;99.90;;;;;;5006072;28;20028;-82
2024/01/15 02:23:11;;;;;;;12.73;4.85;;;5.80;99.90;;;;;;5011115;28;20022;-84
2024/01/15 02:25:39;;;;;;;13.65;4.50;;;5.80;99.90;;;;;;5011655;28;20030;-83
2024/01/15 02:28:06;;;;;;;11.02;4.63;;;5.80;99.90;;;;;;5011692;28;20484;-83
2024/01/15 02:30:32;;;;;;;11.73;5.40;;;5.80;99.90;;;;;;5007417;28;20036;-84
2024/01/15 02:32:58;;;;;;;12.45;4.63;;;5.80;99.90;;;;;;5006934;28;20072;-84
2024/01/15 02:35:23;;;;;;;12.02;4.50;;;5.80;99.90;;;;;;5011913;28;20022;-83
2024/01/15 02:37:49;;;;;;;13.02;4.80;;;5.80;99.90;;;;;;5023925;28;20083;-84
2024/01/15 02:40:14;;;;;;;20.85;5.70;;;5.80;99.90;;;;;;5029094;28;20021;-84
2024/01/15 02:42:40;;;;;;;10.38;5.50;;;5.70;99.90;;;;;;5010798;28;20041;-83
2024/01/15 02:45:05;;;;;;;16.77;5.40;;;5.80;99.90;;;;;;5011793;28;20505;-83
2024/01/15 02:47:31;;;;;;;15.43;5.85;;;5.70;99.90;;;;;;5009957;28;20026;-83
2024/01/15 02:49:56;;;;;;;11.77;5.13;;;5.70;99.90;;;;;;5009896;28;20442;-83
2024/01/15 02:52:22;;;;;;;17.33;5.32;;;5.80;99.90;;;;;;5011136;28;20518;-83
2024/01/15 02:54:47;;;;;;;11.65;5.22;;;5.80;99.90;;;;;;5010439;28;20018;-82
2024/01/15 02:57:13;;;;;;;14.57;5.75;;;5.80;99.90;;;;;;5026287;28;20038;-84
2024/01/15 02:59:38;;;;;;;25.77;5.97;;;5.80;99.90;;;;;;5009539;28;20056;-84
2024/01/15 03:02:04;;;;;;;14.35;5.00;;;5.80;99.90;;;;;;5010892;28;20054;-83
2024/01/15 03:04:29;;;;;;;11.65;4.97;;;5.80;99.90;;;;;;5011424;28;20403;-83
2024/01/15 03:06:55;;;;;;;14.18;5.32;;;5.80;99.90;;;;;;5009589;28;20858;-84
2024/01/15 03:09:20;;;;;;;14.65;5.00;;;5.80;99.90;;;;;;5008104;28;20502;-84
2024/01/15 03:11:46;;;;;;;16.95;5.32;;;5.80;99.90;;;;;;5008630;28;20476;-83
2024/01/15 03:14:12;;;;;;;14.60;5.53;;;5.80;99.90;;;;;;5011582;28;20645;-83
2024/01/15 03:16:37;;;;;;;12.73;4.53;;;5.80;99.90;;;;;;5014457;28;20021;-83
2024/01/15 03:19:03;;;;;;;13.85;5.28;;;5.80;99.90;;;;;;5015816;28;20113;-84
2024/01/15 03:21:28;;;;;;;12.38;4.28;;;5.80;99.90;;;;;;5032380;28;20093;-83
2024/01/15 03:23:54;;;;;;;11.77;5.00;;;5.80;99.90;;;;;;5033620;28;20021;-83
2024/01/15 03:26:19;;;;;;;10.52;4.95;;;5.80;99.90;;;;;;5026815;28;20025;-83
2024/01/15 03:28:45;;;;;;;14.52;4.97;;;5.80;99.90;;;;;;5031349;28;20232;-83
2024/01/15 03:31:10;;;;;;;11.77;4.90;;;5.80;99.90;;;;;;5038898;28;20458;-83
2024/01/15 03:33:36;;;;;;;10.82;4.20;;;5.80;99.90;;;;;;5013272;28;20064;-84
2024/01/15 03:36:01;;;;;;;12.88;4.70;;;5.80;99.90;;;;;;5016668;28;20442;-83
2024/01/15 03:38:30;;;;;;;19.25;5.63;;;5.80;99.90;;;;;;5015337;28;20456;-83
2024/01/15 03:40:56;;;;;;;14.90;5.03;;;5.70;99.90;;;;;;5014349;28;20036;-82
2024/01/15 03:43:21;;;;;;;13.82;5.30;;;5.70;99.90;;;;;;5036719;28;20120;-83
2024/01/15 03:45:47;;;;;;;13.43;4.97;;;5.80;99.90;;;;;;5031770;28;20053;-84
2024/01/15 03:48:12;;;;;;;17.88;5.03;;;5.80;99.90;;;;;;5018449;28;20075;-82
2024/01/15 03:50:38;;;;;;;11.35;4.32;;;5.80;99.90;;;;;;5013554;28;20018;-84
2024/01/15 03:53:03;;;;;;;12.75;5.15;;;5.80;99.90;;;;;;5031776;28;20017;-82
2024/01/15 03:55:29;;;;;;;15.70;5.38;;;5.80;99.90;;;;;;5022072;28;20659;-83
2024/01/15 03:57:54;;;;;;;12.85;4.53;;;5.80;99.90;;;;;;5014992;28;20534;-82
2024/01/15 04:00:20;;;;;;;18.75;5.03;;;5.80;99.90;;;;;;5029940;28;20522;-84
2024/01/15 04:02:46;;;;;;;12.13;4.97;;;5.80;99.90;;;;;;5012734;28;20025;-83
2024/01/15 04:05:11;;;;;;;14.73;5.95;;;5.80;99.90;;;;;;5017524;28;20391;-83
2024/01/15 04:07:37;;;;;;;13.57;4.63;;;5.80;99.90;;;;;;5015617;28;20033;-83
2024/01/15 04:10:02;;;;;;;12.27;4.97;;;5.80;99.90;;;;;;5018526;28;20036;-83
2024/01/15 04:12:28;;;;;;;9.95;4.32;;;5.80;99.90;;;;;;5032615;28;20026;-83
2024/01/15 04:14:53;;;;;;;15.52;5.40;;;5.80;99.90;;;;;;5016426;28;20018;-83
2024/01/15 04:17:19;;;;;;;11.95;4.50;;;5.90;99.90;;;;;;5026529;28;20017;-82
2024/01/15 04:19:45;;;;;;;15.38;5.07;;;5.80;99.90;;;;;;5032502;28;20067;-83
2024/01/15 04:22:10;;;;;;;14.15;4.60;;;5.90;99.90;;;;;;5020224;28;20164;-84
2024/01/15 04:24:36;;;;;;;11.20;4.47;;;5.90;99.90;;;;;;5030492;28;20490;-85
2024/01/15 04:27:01;;;;;;;11.85;4.13;;;5.90;99.90;;;;;;5006980;28;20022;-84
2024/01/15 04:29:27;;;;;;;13.43;5.18;;;5.90;99.90;;;;;;5017015;28;20024;-83
2024/01/15 04:31:53;;;;;;;14.85;5.93;;;5.90;99.90;;;;;;5036693;28;20018;-84
2024/01/15 04:34:18;;;;;;;13.80;5.47;;;5.90;99.90;;;;;;5018195;28;20100;-84
2024/01/15 04:36:44;;;;;;;15.95;4.43;;;5.90;99.90;;;;;;5015387;28;20163;-84
2024/01/15 04:39:11;;;;;;;13.57;4.43;;;5.90;99.90;;;;;;5015232;28;20065;-84
2024/01/15 04:41:37;;;;;;;11.60;4.75;;;5.90;99.90;;;;;;5028427;28;20541;-83
2024/01/15 04:44:02;;;;;;;13.73;4.20;;;5.90;99.90;;;;;;5019754;28;20053;-82
2024/01/15 04:46:28;;;;;;;13.10;4.85;;;5.90;99.90;;;;;;5035231;28;20025;-83
2024/01/15 04:48:53;;;;;;;12.00;4.65;;;5.90;99.90;;;;;;5028063;28;20014;-84
2024/01/15 04:51:19;;;;;;;13.88;4.88;;;5.90;99.90;;;;;;5012348;28;20048;-83
2024/01/15 04:53:44;;;;;;;15.55;4.07;;;5.90;99.90;;;;;;5013783;28;20391;-82
2024/01/15 04:56:10;;;;;;;11.07;4.43;;;5.90;99.90;;;;;;5021390;28;20533;-83
2024/01/15 04:58:36;;;;;;;11.43;4.75;;;5.90;99.90;;;;;;5034021;28;20446;-83
2024/01/15 05:01:01;;;;;;;13.57;4.80;;;5.90;99.90;;;;;;5014914;28;20029;-84
2024/01/15 05:03:27;;;;;;;15.27;4.57;;;5.90;99.90;;;;;;5015656;28;20032;-83
2024/01/15 05:05:52;;;;;;;10.82;4.50;;;5.90;99.90;;;;;;5010162;28;20076;-83
2024/01/15 05:08:18;;;;;;;12.25;4.40;;;5.90;99.90;;;;;;5022180;28;20022;-83
2024/01/15 05:10:44;;;;;;;10.75;4.20;;;5.90;99.90;;;;;;5022152;28;20017;-85
2024/01/15 05:13:10;;;;;;;13.77;4.50;;;5.90;99.90;;;;;;5031289;28;20029;-83
2024/01/15 05:15:35;;;;;;;9.90;4.38;;;5.90;99.90;;;;;;5014430;28;20384;-83
2024/01/15 05:18:01;;;;;;;10.30;4.40;;;5.90;99.90;;;;;;5010847;28;20400;-84
2024/01/15 05:20:26;;;;;;;6.85;3.38;;;5.90;99.90;;;;;;5040666;28;20024;-83
2024/01/15 05:22:52;;;;;;;8.38;3.80;;;5.90;99.90;;;;;;5017497;28;20028;-83
2024/01/15 05:25:17;;;;;;;9.82;3.70;;;5.90;99.90;;;;;;5012590;28;20018;-84
2024/01/15 05:27:43;;;;;;;7.53;3.42;;;5.90;99.90;;;;;;5013634;28;20028;-83
2024/01/15 05:30:09;;;;;;;7.60;3.25;;;5.80;99.90;;;;;;5006939;28;20030;-84
2024/01/15 05:32:34;;;;;;;9.77;3.78;;;5.80;99.90;;;;;;5031611;28;20064;-83
2024/01/15 05:35:00;;;;;;;5.63;3.05;;;5.80;99.90;;;;;;5017016;28;20057;-83
2024/01/15 05:37:26;;;;;;;10.32;2.95;;;5.90;99.90;;;;;;5015458;28;20048;-83
2024/01/15 05:39:51;;;;;;;8.55;3.78;;;5.80;99.90;;;;;;5012693;28;20033;-84
2024/01/15 05:42:17;;;;;;;11.23;3.63;;;5.90;99.90;;;;;;5014653;28;20029;-83
2024/01/15 05:44:43;;;;;;;7.97;3.35;;;5.80;99.90;;;;;;5033908;28;20025;-83
2024/01/15 05:47:08;;;;;;;8.23;3.33;;;5.80;99.90;;;;;;5034844;28;20030;-83
2024/01/15 05:49:34;;;;;;;13.82;4.20;;;5.80;99.90;;;;;;5032920;28;20017;-83
2024/01/15 05:51:59;;;;;;;9.35;3.67;;;5.80;99.90;;;;;;5014039;28;20096;-83
2024/01/15 05:54:25;;;;;;;6.88;3.25;;;5.80;99.90;;;;;;5007988;28;20395;-84
2024/01/15 05:56:50;;;;;;;8.18;3.47;;;5.80;99.90;;;;;;5012317;28;20125;-82
2024/01/15 05:59:16;;;;;;;7.97;4.00;;;5.80;99.90;;;;;;5017387;28;20519;-83
2024/01/15 06:01:42;;;;;;;6.50;2.95;;;5.70;99.90;;;;;;5031855;28;20430;-83
2024/01/15 06:04:08;;;;;;;13.60;4.03;;;5.70;99.90;;;;;;5026216;28;20084;-83
2024/01/15 06:06:33;;;;;;;11.55;3.75;;;5.80;99.90;;;;;;5026883;28;20064;-84
2024/01/15 06:09:05;;;;;;;12.30;4.35;;;5.70;99.90;;;;;;5019375;28;20017;-83
2024/01/15 06:11:33;;;;;;;11.98;4.03;;;5.70;99.90;;;;;;5013664;28;20021;-85
2024/01/15 06:14:00;;;;;;;12.40;4.18;;;5.70;99.90;;;;;;5030969;28;20439;-83
2024/01/15 06:16:26;;;;;;;11.15;3.95;;;5.70;99.90;;;;;;5011587;28;20449;-82
2024/01/15 06:18:51;;;;;;;11.52;4.32;;;5.70;99.90;;;;;;5010084;28;20022;-84
2024/01/15 06:21:17;;;;;;;14.05;4.20;;;5.70;99.90;;;;;;5021063;28;20095;-83
2024/01/15 06:23:42;;;;;;;11.63;4.15;;;5.70;99.90;;;;;;5035507;28;20035;-83
2024/01/15 06:26:08;;;;;;;15.80;4.35;;;5.70;99.90;;;;;;5015060;28;20033;-83
2024/01/15 06:28:33;;;;;;;14.68;4.88;;;5.70;99.90;;;;;;5028747;28;20086;-83
2024/01/15 06:30:59;;;;;;;10.38;4.22;;;5.70;99.90;;;;;;5010291;28;20141;-84
2024/01/15 06:33:25;;;;;;;13.10;4.53;;;5.70;99.90;;;;;;5034573;28;20033;-84
2024/01/15 06:35:50;;;;;;;13.18;4.10;;;5.70;99.90;;;;;;5033893;28;20060;-83
2024/01/15 06:38:16;;;;;;;9.38;3.70;;;5.70;99.90;;;;;;5016496;28;20033;-86
2024/01/15 06:40:45;;;;;;;10.50;3.65;;;5.70;99.90;;;;;;5028071;28;20590;-83
2024/01/15 06:43:11;;;;;;;8.43;3.60;;;5.70;99.90;;;;;;5026773;28;20545;-85
2024/01/15 06:45:37;;;;;;;9.45;3.55;;;5.70;99.90;;;;;;5033332;28;20024;-84
2024/01/15 06:48:03;;;;;;;7.25;3.00;;;5.60;99.90;;;;;;5014151;28;20392;-83
2024/01/15 06:50:28;;;;;;;7.35;3.33;;;5.60;99.90;;;;;;5018016;28;20064;-83
2024/01/15 06:52:54;;;;;;;6.20;3.55;;;5.60;99.90;;;;;;5017272;28;20060;-83
2024/01/15 06:55:19;;;;;;;13.45;4.20;;;5.60;99.90;;;;;;5012126;28;20024;-84
2024/01/15 06:57:45;;;;;;;11.27;3.83;;;5.60;99.90;;;;;;5037991;28;20025;-83
2024/01/15 07:00:11;;;;;;;9.40;4.20;;;5.70;99.90;;;;;;5018354;28;20030;-83
2024/01/15 07:02:36;;;;;;;9.10;4.30;;;5.70;99.90;;;;;;5021756;28;20506;-83
2024/01/15 07:05:04;;;;;;;12.48;4.18;;;5.70;99.90;;;;;;5016587;28;20036;-83
2024/01/15 07:07:30;;;;;;;12.13;4.00;;;5.70;99.90;;;;;;5011404;28;20029;-83
2024/01/15 07:09:56;;;;;;;10.50;4.30;;;5.70;99.90;;;;;;5020702;28;20032;-82
2024/01/15 07:12:23;;;;;;;11.68;4.32;;;5.60;99.90;;;;;;5022950;28;20112;-84
2024/01/15 07:14:48;;;;;;;9.80;4.57;;;5.60;99.90;;;;;;5036143;28;20558;-83
2024/01/15 07:17:15;;;;;;;11.27;4.30;;;5.70;99.90;;;;;;5034842;28;20112;-83
2024/01/15 07:19:40;;;;;;;13.18;4.95;;;5.70;99.90;;;;;;5029491;28;20053;-83
2024/01/15 07:22:06;;;;;;;11.57;4.28;;;5.70;99.90;;;;;;5018930;28;20060;-84
2024/01/15 07:24:34;;;;;;;9.98;4.28;;;5.70;99.90;;;;;;5020908;28;20132;-84
2024/01/15 07:26:59;;;;;;;17.83;5.05;;;5.70;99.90;;;;;;5036016;28;20104;-83
2024/01/15 07:29:25;;;;;;;10.23;4.82;;;5.70;99.90;;;;;;5033742;28;20101;-83
2024/01/15 07:31:51;;;;;;;11.40;4.35;;;5.70;99.90;;;;;;5013715;28;20071;-82
2024/01/15 07:34:17;;;;;;;15.00;4.30;;;5.70;99.90;;;;;;5029462;28;20033;-83
2024/01/15 07:36:44;;;;;;;13.18;4.97;;;5.70;99.90;;;;;;5039625;28;20670;-83
2024/01/15 07:39:10;;;;;;;12.40;5.00;;;5.70;99.90;;;;;;5033948;28;20033;-83
2024/01/15 07:41:35;;;;;;;10.50;4.82;;;5.70;99.90;;;;;;5015963;28;20398;-83
2024/01/15 07:44:01;;;;;;;13.32;4.53;;;5.70;99.90;;;;;;5014025;28;20032;-84
2024/01/15 07:46:27;;;;;;;12.50;4.97;;;5.70;99.90;;;;;;5018196;28;20475;-83
2024/01/15 07:48:56;;;;;;;10.18;4.82;;;5.80;99.90;;;;;;5039158;28;20025;-84
2024/01/15 07:51:22;;;;;;;11.00;4.47;;;5.80;99.90;;;;;;5018319;28;20025;-84
2024/01/15 07:53:48;;;;;;;16.48;3.92;;;5.80;99.90;;;;;;5033496;28;20092;-83
2024/01/15 07:56:13;;;;;;;12.18;5.10;;;5.80;99.90;;;;;;5014365;28;20551;-83
2024/01/15 07:58:39;;;;;;;12.82;4.40;;;5.80;99.90;;;;;;5015777;28;20074;-84
2024/01/15 08:01:04;;;;;;;11.43;4.57;;;5.80;99.90;;;;;;5037423;28;20021;-84
2024/01/15 08:03:30;;;;;;;9.32;4.57;;;5.70;99.90;;;;;;5036290;28;20076;-82
2024/01/15 08:05:57;;;;;;;11.52;4.70;;;5.80;99.90;;;;;;5009620;28;20029;-86
2024/01/15 08:08:23;;;;;;;14.02;4.10;;;5.70;99.90;;;;;;5015233;28;20032;-83
2024/01/15 08:10:49;;;;;;;10.73;4.13;;;5.70;99.90;;;;;;5018351;28;20017;-84
2024/01/15 08:13:14;;;;;;;8.57;3.35;;;5.70;99.90;;;;;;5016616;28;20491;-83
2024/01/15 08:15:41;;;;;;;8.40;3.40;;;5.70;99.90;;;;;;5018566;28;20024;-83
2024/01/15 08:18:06;;;;;;;9.05;3.47;;;5.70;99.90;;;;;;5031577;28;20172;-83
2024/01/15 08:20:32;;;;;;;7.60;3.60;;;5.70;99.90;;;;;;5014076;28;20547;-84
2024/01/15 08:22:58;;;;;;;9.48;4.05;;;5.70;99.90;;;;;;5014228;28;20045;-83
2024/01/15 08:25:23;;;;;;;7.43;3.28;;;5.70;99.90;;;;;;5013249;28;20515;-83
2024/01/15 08:27:49;;;;;;;6.22;3.22;;;5.70;99.90;;;;;;5036914;28;20120;-84
2024/01/15 08:30:15;;;;;;;6.88;3.05;;;5.70;99.90;;;;;;5015311;28;20053;-83
2024/01/15 08:32:42;;;;;;;7.18;3.08;;;5.70;99.90;;;;;;5016199;28;20040;-83
2024/01/15 08:35:09;;;;;;;8.18;2.88;;;5.70;99.90;;;;;;5031364;28;20027;-83
2024/01/15 08:37:34;;;;;;;6.97;2.80;;;5.70;99.90;;;;;;5032855;28;20573;-83
2024/01/15 08:40:00;;;;;;;9.48;3.17;;;5.70;99.90;;;;;;5021875;28;20121;-85
2024/01/15 08:42:25;;;;;;;11.40;3.70;;;5.80;99.90;;;;;;5011372;28;20041;-83
2024/01/15 08:44:51;;;;;;;10.88;3.08;;;5.80;99.90;;;;;;5029832;28;20021;-83
2024/01/15 08:47:17;;;;;;;6.00;2.53;;;5.80;99.90;;;;;;5012114;28;20372;-84
2024/01/15 08:49:44;;;;;;;11.20;2.90;;;5.80;99.90;;;;;;5012843;28;20029;-82
2024/01/15 08:52:09;;;;;;;6.97;2.72;;;5.80;99.90;;;;;;5013121;28;20496;-84
2024/01/15 08:54:35;;;;;;;6.35;3.15;;;5.80;99.90;;;;;;5016669;28;20021;-83
2024/01/15 08:57:01;;;;;;;8.68;3.25;;;5.80;99.90;;;;;;5012976;28;20475;-84
2024/01/15 08:59:26;;;;;;;7.35;3.10;;;5.80;99.90;;;;;;5013464;28;20509;-83
2024/01/15 09:01:53;;;;;;;10.98;3.20;;;5.80;99.90;;;;;;5013108;28;20021;-84
2024/01/15 09:04:19;;;;;;;8.27;2.88;;;5.80;99.90;;;;;;5016447;28;20679;-84
2024/01/15 09:06:48;;;;;;;4.93;2.70;;;5.80;99.90;;;;;;5012708;28;20022;-84
2024/01/15 09:09:16;;;;;;;7.18;2.83;;;5.80;99.90;;;;;;5028193;28;20044;-83
2024/01/15 09:11:42;;;;;;;8.25;2.72;;;5.80;99.90;;;;;;5011956;28;20040;-83
2024/01/15 09:14:08;;;;;;;8.70;3.10;;;5.90;99.90;;;;;;5034326;28;20026;-84
2024/01/15 09:16:34;;;;;;;6.28;2.80;;;5.90;99.90;;;;;;5014002;28;20112;-83
2024/01/15 09:18:59;;;;;;;7.57;3.22;;;5.90;99.90;;;;;;5014785;28;20455;-83
2024/01/15 09:21:25;;;;;;;6.72;2.55;;;6.00;99.90;;;;;;5030872;28;20033;-83
2024/01/15 09:23:51;;;;;;;10.00;2.70;;;6.00;99.90;;;;;;5012601;28;20044;-84
2024/01/15 09:26:17;;;;;;;7.65;3.15;;;6.10;99.90;;;;;;5019653;28;20037;-83
2024/01/15 09:28:42;;;;;;;7.13;2.70;;;6.10;99.90;;;;;;5016250;28;20488;-83
2024/01/15 09:31:08;;;;;;;6.55;3.20;;;6.10;99.90;;;;;;5012263;28;20068;-83
2024/01/15 09:33:33;;;;;;;6.35;2.58;;;6.20;99.90;;;;;;5012026;28;20056;-83
2024/01/15 09:36:06;;;;;;;6.75;2.88;;;6.20;99.90;;;;;;5012071;28;20033;-84
2024/01/15 09:38:31;;;;;;;6.35;3.00;;;6.20;99.90;;;;;;5015569;28;20033;-83
2024/01/15 09:40:57;;;;;;;4.45;1.92;;;6.30;99.90;;;;;;5030710;28;20040;-83
2024/01/15 09:43:23;;;;;;;6.00;2.55;;;6.30;99.90;;;;;;5012993;28;20033;-83
2024/01/15 09:45:50;;;;;;;7.28;2.83;;;6.30;99.90;;;;;;5012713;28;20111;-83
2024/01/15 09:48:16;;;;;;;5.60;3.28;;;6.30;99.90;;;;;;5014776;28;20030;-83
2024/01/15 09:50:42;;;;;;;9.32;2.72;;;6.30;99.90;;;;;;5012253;28;20074;-84
2024/01/15 09:53:09;;;;;;;4.65;2.20;;;6.30;99.90;;;;;;5017035;28;20038;-83
2024/01/15 09:55:37;;;;;;;6.38;3.00;;;6.20;99.90;;;;;;5034618;28;20018;-83
2024/01/15 09:58:03;;;;;;;5.70;2.78;;;6.20;99.90;;;;;;5026731;28;20032;-82
2024/01/15 10:00:31;;;;;;;7.50;3.33;;;6.20;99.90;;;;;;5028319;28;20026;-82
2024/01/15 10:02:57;;;;;;;6.03;2.17;;;6.10;99.90;;;;;;5036355;28;20017;-83
2024/01/15 10:05:22;;;;;;;4.82;2.40;;;6.20;99.90;;;;;;5012138;28;20021;-83
2024/01/15 10:07:50;;;;;;;4.32;2.50;;;6.10;99.90;;;;;;5013530;28;20037;-82
2024/01/15 10:10:15;;;;;;;6.13;3.00;;;6.10;99.90;;;;;;5031107;28;20017;-82
2024/01/15 10:12:42;;;;;;;4.72;2.40;;;6.10;99.90;;;;;;5026745;28;20017;-83
2024/01/15 10:15:11;;;;;;;7.22;2.33;;;6.10;99.90;;;;;;5031960;28;20554;-84
2024/01/15 10:17:38;;;;;;;5.07;2.03;;;6.10;99.90;;;;;;5026939;28;20033;-84
2024/01/15 10:20:09;;;;;;;4.45;2.45;;;6.10;99.90;;;;;;5013503;28;20326;-83
2024/01/15 10:22:37;;;;;;;4.43;2.03;;;6.10;99.90;;;;;;5030830;28;20032;-83
2024/01/15 10:25:04;;;;;;;4.32;2.08;;;6.10;99.90;;;;;;5013549;28;20426;-82
2024/01/15 10:27:29;;;;;;;4.55;2.38;;;6.10;99.90;;;;;;5015047;28;20029;-83
2024/01/15 10:30:00;;;;;;;4.90;1.92;;;6.00;99.90;;;;;;5034770;28;20360;-83
2024/01/15 10:32:25;;;;;;;;;;;6.10;99.90;;;;;;5016005;28;20060;-83
2024/01/15 10:34:52;;;;;;;5.80;2.00;;;6.10;99.90;;;;;;5014251;28;19932;-84
2024/01/15 10:37:19;;;;;;;2.83;1.50;;;6.00;99.90;;;;;;5026044;28;20033;-84
2024/01/15 10:39:46;;;;;;;3.03;1.70;;;6.00;99.90;;;;;;5015038;28;20116;-85
2024/01/15 10:42:12;;;;;;;3.97;1.83;;;6.00;99.90;;;;;;5017167;28;20037;-84
2024/01/15 10:44:37;;;;;;;3.28;1.67;;;6.00;99.90;;;;;;5029158;28;20030;-83
2024/01/15 10:47:04;;;;;;;4.97;2.10;;;6.00;99.90;;;;;;5032209;28;20037;-84
2024/01/15 10:49:30;;;;;;;1.38;1.20;;;6.00;99.90;;;;;;5012038;28;20037;-83
2024/01/15 10:51:57;;;;;;;3.55;1.75;;;6.00;99.90;;;;;;5012735;28;20017;-84
2024/01/15 10:54:23;;;;;;;2.40;1.45;;;6.00;99.90;;;;;;5015725;28;20034;-83
2024/01/15 10:56:51;;;;;;;1.98;1.38;;;6.00;99.90;;;;;;5031341;28;20108;-83
2024/01/15 10:59:18;;;;;;;3.15;1.67;;;6.00;99.90;;;;;;5031012;28;20045;-84
2024/01/15 11:01:45;;;;;;;1.77;1.27;;;6.00;99.90;;;;;;5009826;28;20099;-84
2024/01/15 11:04:10;;;;;;;1.73;1.33;;;6.10;99.90;;;;;;5016319;28;20029;-84
2024/01/15 11:06:44;;;;;;;4.57;1.65;;;6.00;99.90;;;;;;5031896;28;20454;-82
2024/01/15 11:09:11;;;;;;;1.45;1.35;;;6.00;99.90;;;;;;5033866;28;20033;-83
2024/01/15 11:11:40;;;;;;;8.23;1.42;;;6.00;99.90;;;;;;5011292;28;20092;-83
2024/01/15 11:14:06;;;;;;;2.40;1.37;;;6.00;99.90;;;;;;5024815;28;20052;-84
2024/01/15 11:16:56;;;;;;;1.70;1.23;;;6.00;99.90;;;;;;5010419;28;20033;-84
2024/01/15 11:19:22;;;;;;;2.47;1.27;;;6.00;99.90;;;;;;5014874;28;20029;-83
2024/01/15 11:21:47;;;;;;;2.08;1.35;;;6.00;99.90;;;;;;5015162;28;20484;-83
2024/01/15 11:24:35;;;;;;;5.93;1.30;;;5.90;99.90;;;;;;5028614;28;20042;-83
2024/01/15 11:27:00;;;;;;;2.60;1.40;;;6.00;99.90;;;;;;5030011;28;20021;-83
2024/01/15 11:29:30;;;;;;;3.15;1.20;;;6.00;99.90;;;;;;5034781;28;20411;-83
2024/01/15 11:31:57;;;;;;;2.85;1.48;;;6.00;99.90;;;;;;5036620;28;20396;-83
2024/01/15 11:35:09;;;;;;;6.15;1.40;;;6.00;99.90;;;;;;5028737;28;20030;-83
2024/01/15 11:37:57;;;;;;;3.05;1.60;;;6.00;99.90;;;;;;5026464;28;20037;-83
2024/01/15 11:40:37;;;;;;;5.10;1.60;;;5.90;99.90;;;;;;5028466;28;20037;-83
2024/01/15 11:43:04;;;;;;;3.95;1.40;;;6.00;99.90;;;;;;5014421;28;20112;-82
2024/01/15 11:45:30;;;;;;;2.00;1.15;;;5.90;99.90;;;;;;5016399;28;20036;-82
2024/01/15 11:48:17;;;;;;;4.60;1.50;;;5.90;99.90;;;;;;5033400;28;20127;-83
2024/01/15 11:50:49;;;;;;;2.28;1.50;;;5.90;99.90;;;;;;5016081;28;20120;-83
2024/01/15 11:53:29;;;;;;;2.30;1.42;;;6.00;99.90;;;;;;5018141;28;20104;-83
2024/01/15 11:55:58;;;;;;;2.28;1.30;;;5.90;99.90;;;;;;5037516;28;20026;-83
2024/01/15 11:58:25;;;;;;;3.85;1.40;;;5.90;99.90;;;;;;5011505;28;20713;-84
2024/01/15 12:00:52;;;;;;;2.97;1.60;;;5.90;99.90;;;;;;5038550;28;20033;-83
2024/01/15 12:03:20;;;;;;;1.80;1.30;;;5.90;99.90;;;;;;5013520;28;20029;-84
2024/01/15 12:05:46;;;;;;;3.90;1.63;;;5.90;99.90;;;;;;5017897;28;20025;-83
2024/01/15 12:08:11;;;;;;;2.60;1.40;;;5.90;99.90;;;;;;5033467;28;20029;-83
2024/01/15 12:10:41;;;;;;;3.63;1.50;;;5.90;99.90;;;;;;5015030;28;20383;-83
2024/01/15 12:13:14;;;;;;;5.07;1.52;;;5.90;99.90;;;;;;5029478;28;20029;-83
2024/01/15 12:15:43;;;;;;;2.65;1.63;;;5.90;99.90;;;;;;5013876;28;20053;-82
2024/01/15 12:18:11;;;;;;;2.83;1.60;;;5.90;99.90;;;;;;5038537;28;20024;-85
2024/01/15 12:20:36;;;;;;;3.47;1.75;;;5.90;99.90;;;;;;5034559;28;20267;-83
2024/01/15 12:23:09;;;;;;;4.30;1.80;;;5.90;99.90;;;;;;5031466;28;20383;-83
2024/01/15 12:25:35;;;;;;;3.97;1.80;;;5.90;99.90;;;;;;5015099;28;20053;-83
2024/01/15 12:28:01;;;;;;;3.05;1.73;;;5.90;99.90;;;;;;5014129;28;20068;-84
2024/01/15 12:30:28;;;;;;;4.40;1.67;;;6.00;99.90;;;;;;5020340;28;20030;-83
2024/01/15 12:32:54;;;;;;;6.15;1.88;;;6.00;99.90;;;;;;5013172;28;20029;-83
2024/01/15 12:35:20;;;;;;;4.72;1.73;;;6.00;99.90;;;;;;5034713;28;20025;-84
2024/01/15 12:37:48;;;;;;;3.83;1.60;;;6.00;99.90;;;;;;5015030;28;20081;-83
2024/01/15 12:40:18;;;;;;;3.33;1.70;;;6.00;99.90;;;;;;5022441;28;20041;-83
2024/01/15 12:42:44;;;;;;;2.10;1.80;;;6.00;99.90;;;;;;5035881;28;20112;-83
2024/01/15 12:45:11;;;;;;;3.88;1.50;;;6.00;99.90;;;;;;5034997;28;20111;-83
2024/01/15 12:47:37;;;;;;;4.00;2.30;;;6.00;99.90;;;;;;5033940;28;20120;-83
2024/01/15 12:50:09;;;;;;;4.28;1.75;;;6.00;99.90;;;;;;5016466;28;20029;-83